createdAt,value
2022-09-30T00:00:47.525Z,66.75
2022-09-30T00:05:56.191Z,66.92
2022-09-30T00:11:01.656Z,67.18
2022-09-30T00:16:03.743Z,67.13
2022-09-30T00:21:08.182Z,66.86
2022-09-30T00:26:18.339Z,66.89
2022-09-30T00:31:21.495Z,66.75
2022-09-30T00:36:22.988Z,66.90
2022-09-30T00:41:24.991Z,66.38
2022-09-30T00:46:39.788Z,67.27
2022-09-30T00:51:54.497Z,67.06
2022-09-30T00:56:59.088Z,67.46
2022-09-30T01:02:01.384Z,67.14
2022-09-30T01:07:05.861Z,67.08
2022-09-30T01:12:10.911Z,67.45
2022-09-30T01:17:41.148Z,67.17
2022-09-30T01:22:45.210Z,66.94
2022-09-30T01:28:04.844Z,67.24
2022-09-30T01:33:19.492Z,67.90
2022-09-30T01:38:49.654Z,67.49
2022-09-30T01:44:08.522Z,67.88
2022-09-30T01:49:38.517Z,67.49
2022-09-30T01:54:48.251Z,67.62
2022-09-30T02:00:04.103Z,67.52
2022-09-30T02:05:11.610Z,67.63
2022-09-30T02:10:20.816Z,67.12
2022-09-30T02:15:28.284Z,67.04
2022-09-30T02:20:33.170Z,67.27
2022-09-30T02:25:42.292Z,67.23
2022-09-30T02:30:49.985Z,67.36
2022-09-30T02:35:59.027Z,67.32
2022-09-30T02:41:06.558Z,67.51
2022-09-30T02:46:10.957Z,67.75
2022-09-30T02:51:26.461Z,68.25
2022-09-30T02:56:45.940Z,67.91
2022-09-30T03:01:47.547Z,67.70
2022-09-30T03:06:49.362Z,67.69
2022-09-30T03:11:54.210Z,67.88
2022-09-30T03:17:08.500Z,67.71
2022-09-30T03:22:40.608Z,68.28
2022-09-30T03:27:54.670Z,68.47
2022-09-30T03:33:25.085Z,68.69
2022-09-30T03:38:49.414Z,68.31
2022-09-30T03:44:22.140Z,68.52
2022-09-30T03:49:28.309Z,68.06
2022-09-30T03:54:29.878Z,68.60
2022-09-30T03:59:31.224Z,68.31
2022-09-30T04:04:32.610Z,68.80
2022-09-30T04:09:34.663Z,68.99
2022-09-30T04:14:36.423Z,68.48
2022-09-30T04:19:40.165Z,68.18
2022-09-30T04:24:41.843Z,68.24
2022-09-30T04:29:43.206Z,68.06
2022-09-30T04:34:44.551Z,68.14
2022-09-30T04:39:45.876Z,68.29
2022-09-30T04:44:48.086Z,67.82
2022-09-30T04:49:49.416Z,67.96
2022-09-30T04:54:50.760Z,67.96
2022-09-30T04:59:52.256Z,68.68
2022-09-30T05:04:55.159Z,68.42
2022-09-30T05:09:56.514Z,68.87
2022-09-30T05:14:57.840Z,68.25
2022-09-30T05:19:59.625Z,68.59
2022-09-30T05:25:03.832Z,68.57
2022-09-30T05:30:06.687Z,68.06
2022-09-30T05:35:09.261Z,68.55
2022-09-30T05:40:10.749Z,68.66
2022-09-30T05:45:12.124Z,68.97
2022-09-30T05:50:13.485Z,68.31
2022-09-30T05:55:16.461Z,68.48
2022-09-30T06:00:18.854Z,68.70
2022-09-30T06:05:22.013Z,68.87
2022-09-30T06:10:24.081Z,68.62
2022-09-30T06:15:26.873Z,69.19
2022-09-30T06:20:28.216Z,68.35
2022-09-30T06:25:30.049Z,68.85
2022-09-30T06:30:35.071Z,68.68
2022-09-30T06:35:36.909Z,68.82
2022-09-30T06:40:38.499Z,68.57
2022-09-30T06:45:39.915Z,68.37
2022-09-30T06:50:43.500Z,68.37
2022-09-30T06:55:54.557Z,68.65
2022-09-30T07:01:02.150Z,68.19
2022-09-30T07:06:05.265Z,68.21
2022-09-30T07:11:12.518Z,67.94
2022-09-30T07:16:14.580Z,68.17
2022-09-30T07:21:16.415Z,68.59
2022-09-30T07:26:22.729Z,68.73
2022-09-30T07:31:35.261Z,68.32
2022-09-30T07:36:39.234Z,68.91
2022-09-30T07:41:40.836Z,68.17
2022-09-30T07:46:43.873Z,67.99
2022-09-30T07:51:45.611Z,68.23
2022-09-30T08:02:14.319Z,67.43
2022-09-30T08:07:17.633Z,67.63
2022-09-30T08:12:18.983Z,67.18
2022-09-30T08:17:20.327Z,67.41
2022-09-30T08:22:23.754Z,67.39
2022-09-30T08:27:25.151Z,67.32
2022-09-30T08:32:30.531Z,66.71
2022-09-30T08:37:31.987Z,66.90
2022-09-30T08:42:41.607Z,67.06
2022-09-30T08:47:56.241Z,66.63
2022-09-30T08:53:02.152Z,66.45
2022-09-30T08:58:05.030Z,66.54
2022-09-30T09:03:06.636Z,66.25
2022-09-30T09:08:28.559Z,66.12
2022-09-30T09:13:51.125Z,65.67
2022-09-30T09:19:08.227Z,66.23
2022-09-30T09:24:18.125Z,65.80
2022-09-30T09:29:43.817Z,65.41
2022-09-30T09:34:51.677Z,65.47
2022-09-30T09:40:04.538Z,64.88
2022-09-30T09:45:14.881Z,64.21
2022-09-30T09:50:27.662Z,64.01
2022-09-30T09:55:29.072Z,63.74
2022-09-30T10:00:48.611Z,63.17
2022-09-30T10:06:12.739Z,62.42
2022-09-30T10:11:22.856Z,61.71
2022-09-30T10:16:37.399Z,61.39
2022-09-30T10:21:38.748Z,60.85
2022-09-30T10:26:48.457Z,59.81
2022-09-30T10:31:54.033Z,59.34
2022-09-30T10:37:01.452Z,58.71
2022-09-30T10:42:17.139Z,57.95
2022-09-30T10:47:26.159Z,57.31
2022-09-30T10:52:32.292Z,56.30
2022-09-30T10:57:36.308Z,56.10
2022-09-30T11:02:41.782Z,54.96
2022-09-30T11:07:53.378Z,54.22
2022-09-30T11:13:19.385Z,53.81
2022-09-30T11:18:52.584Z,52.91
2022-09-30T11:24:02.352Z,52.41
2022-09-30T11:29:26.670Z,51.93
2022-09-30T11:34:44.887Z,51.13
2022-09-30T11:40:19.317Z,50.51
2022-09-30T11:45:39.761Z,49.55
2022-09-30T11:51:18.721Z,48.20
2022-09-30T11:56:46.190Z,46.23
2022-09-30T12:01:49.941Z,47.26
2022-09-30T12:07:18.965Z,44.60
2022-09-30T12:12:20.829Z,43.53
2022-09-30T12:17:32.071Z,42.75
2022-09-30T12:22:41.131Z,41.57
2022-09-30T12:28:27.023Z,40.74
2022-09-30T12:33:43.273Z,40.65
2022-09-30T12:39:08.159Z,39.25
2022-09-30T12:44:35.996Z,38.93
2022-09-30T12:49:40.178Z,39.17
2022-09-30T12:54:48.086Z,37.91
2022-09-30T13:00:00.965Z,37.72
2022-09-30T13:05:46.719Z,38.90
2022-09-30T13:10:58.360Z,38.60
2022-09-30T13:16:05.623Z,38.00
2022-09-30T13:21:08.414Z,38.45
2022-09-30T13:26:34.732Z,38.17
2022-09-30T13:31:45.290Z,37.83
2022-09-30T13:36:52.487Z,38.30
2022-09-30T13:42:01.507Z,39.08
2022-09-30T13:47:22.001Z,38.74
2022-09-30T13:52:31.364Z,38.70
2022-09-30T13:57:49.017Z,37.93
2022-09-30T14:03:26.482Z,36.96
2022-09-30T14:08:50.615Z,37.97
2022-09-30T14:14:17.267Z,37.34
2022-09-30T14:19:32.517Z,37.50
2022-09-30T14:24:37.833Z,36.97
2022-09-30T14:29:45.480Z,37.30
2022-09-30T14:34:48.524Z,36.83
2022-09-30T14:39:50.076Z,36.29
2022-09-30T14:44:54.206Z,36.29
2022-09-30T14:49:55.596Z,36.23
2022-09-30T14:54:57.943Z,36.08
2022-09-30T15:00:21.191Z,36.54
2022-09-30T15:05:23.001Z,36.97
2022-09-30T15:10:25.062Z,36.93
2022-09-30T15:15:33.299Z,36.30
2022-09-30T15:20:36.655Z,36.47
2022-09-30T15:25:40.029Z,36.27
2022-09-30T15:30:43.059Z,36.94
2022-09-30T15:35:45.321Z,37.28
2022-09-30T15:40:58.954Z,37.51
2022-09-30T15:46:19.507Z,37.98
2022-09-30T15:51:36.349Z,38.41
2022-09-30T15:56:37.846Z,38.54
2022-09-30T16:01:44.397Z,38.78
2022-09-30T16:06:54.555Z,38.91
2022-09-30T16:12:08.722Z,39.25
2022-09-30T16:17:27.002Z,39.08
2022-09-30T16:22:40.657Z,39.62
2022-09-30T16:27:42.193Z,39.82
2022-09-30T16:32:47.455Z,40.46
2022-09-30T16:37:50.762Z,40.78
2022-09-30T16:42:54.807Z,41.22
2022-09-30T16:47:58.050Z,41.89
2022-09-30T16:52:59.429Z,42.18
2022-09-30T16:58:00.953Z,42.56
2022-09-30T17:03:02.392Z,42.90
2022-09-30T17:08:03.761Z,43.68
2022-09-30T17:13:06.032Z,44.30
2022-09-30T17:18:10.036Z,45.24
2022-09-30T17:23:12.511Z,45.70
2022-09-30T17:28:14.550Z,46.21
2022-09-30T17:33:18.503Z,46.85
2022-09-30T17:38:19.905Z,47.59
2022-09-30T17:43:21.514Z,48.38
2022-09-30T17:48:23.548Z,49.08
2022-09-30T17:53:25.074Z,49.69
2022-09-30T17:58:27.069Z,50.44
2022-09-30T18:03:28.460Z,51.13
2022-09-30T18:08:29.842Z,51.92
2022-09-30T18:13:31.178Z,52.29
2022-09-30T18:18:35.053Z,52.80
2022-09-30T18:23:36.452Z,53.25
2022-09-30T18:28:38.042Z,53.53
2022-09-30T18:33:39.557Z,53.90
2022-09-30T18:38:40.931Z,54.58
2022-09-30T18:43:45.092Z,54.93
2022-09-30T18:48:50.043Z,55.56
2022-09-30T18:53:57.418Z,55.83
2022-09-30T18:59:04.320Z,55.39
2022-09-30T19:04:05.812Z,56.03
2022-09-30T19:09:08.800Z,56.91
2022-09-30T19:14:12.436Z,57.05
2022-09-30T19:19:13.989Z,57.45
2022-09-30T19:24:17.028Z,58.31
2022-09-30T19:29:18.493Z,58.19
2022-09-30T19:34:30.286Z,58.42
2022-09-30T19:39:44.268Z,58.94
2022-09-30T19:44:47.056Z,59.03
2022-09-30T19:49:48.456Z,59.42
2022-09-30T19:54:50.768Z,59.86
2022-09-30T19:59:53.252Z,59.91
2022-09-30T20:04:54.805Z,60.07
2022-09-30T20:09:56.777Z,60.24
2022-09-30T20:15:16.656Z,60.45
2022-09-30T20:20:37.047Z,60.76
2022-09-30T20:25:38.771Z,60.81
2022-09-30T20:30:48.189Z,61.04
2022-09-30T20:35:50.862Z,61.43
2022-09-30T20:40:57.042Z,61.78
2022-09-30T20:46:03.351Z,61.67
2022-09-30T20:51:10.076Z,61.67
2022-09-30T20:56:15.112Z,61.90
2022-09-30T21:01:18.469Z,62.12
2022-09-30T21:06:25.012Z,62.19
2022-09-30T21:11:26.509Z,62.49
2022-09-30T21:16:29.467Z,62.54
2022-09-30T21:21:31.265Z,62.66
2022-09-30T21:26:32.835Z,63.01
2022-09-30T21:31:35.172Z,63.24
2022-09-30T21:36:38.876Z,63.16
2022-09-30T21:41:41.065Z,63.70
2022-09-30T21:46:48.035Z,63.53
2022-09-30T21:51:51.552Z,63.71
2022-09-30T21:56:53.398Z,63.83
2022-09-30T22:01:54.880Z,63.93
2022-09-30T22:06:56.291Z,64.28
2022-09-30T22:11:58.097Z,64.61
2022-09-30T22:16:59.505Z,64.95
2022-09-30T22:22:01.667Z,64.99
2022-09-30T22:27:07.432Z,64.91
2022-09-30T22:32:08.973Z,65.01
2022-09-30T22:37:28.688Z,65.06
2022-09-30T22:42:30.069Z,65.09
2022-09-30T22:47:31.751Z,65.09
2022-09-30T22:52:33.130Z,65.13
2022-09-30T22:57:34.756Z,65.05
2022-09-30T23:02:36.219Z,65.18
2022-09-30T23:07:37.711Z,65.33
2022-09-30T23:12:39.138Z,65.17
2022-09-30T23:17:40.534Z,65.25
2022-09-30T23:22:41.916Z,65.12
2022-09-30T23:27:47.610Z,65.85
2022-09-30T23:32:49.036Z,66.39
2022-09-30T23:37:52.318Z,67.01
2022-09-30T23:42:54.178Z,66.92
2022-09-30T23:47:57.186Z,66.73
2022-09-30T23:52:59.253Z,66.99
2022-09-30T23:58:00.630Z,67.14
